createdAt,value
2018-09-14T04:00:57.905Z,15.10
2018-09-14T04:03:26.061Z,15.20
2018-09-14T04:05:54.240Z,15.20
2018-09-14T04:08:22.412Z,15.20
2018-09-14T04:10:50.681Z,15.10
2018-09-14T04:13:18.894Z,15.10
2018-09-14T04:15:47.110Z,15.10
2018-09-14T04:18:15.441Z,15.10
2018-09-14T04:20:43.687Z,15.10
2018-09-14T04:23:11.975Z,15.00
2018-09-14T04:25:40.181Z,15.00
2018-09-14T04:28:08.447Z,15.00
2018-09-14T04:30:36.689Z,15.00
2018-09-14T04:33:04.941Z,15.10
2018-09-14T04:35:33.152Z,15.00
2018-09-14T04:38:01.428Z,15.00
2018-09-14T04:40:29.676Z,15.00
2018-09-14T04:42:58.681Z,15.00
2018-09-14T04:45:26.940Z,15.00
2018-09-14T04:47:55.158Z,15.00
2018-09-14T04:50:23.839Z,15.00
2018-09-14T04:52:52.081Z,15.00
2018-09-14T04:55:20.277Z,15.00
2018-09-14T04:57:48.485Z,15.00
2018-09-14T05:00:16.705Z,15.00
2018-09-14T05:02:44.942Z,15.00
2018-09-14T05:05:13.158Z,15.00
2018-09-14T05:07:41.441Z,15.00
2018-09-14T05:10:09.668Z,15.00
2018-09-14T05:12:37.889Z,15.00
2018-09-14T05:15:06.212Z,15.00
2018-09-14T05:17:34.397Z,14.90
2018-09-14T05:20:02.577Z,14.90
2018-09-14T05:22:30.791Z,14.90
2018-09-14T05:24:58.969Z,15.00
2018-09-14T05:27:34.006Z,15.00
2018-09-14T05:30:02.190Z,14.90
2018-09-14T05:32:30.460Z,14.90
2018-09-14T05:34:58.706Z,14.90
2018-09-14T05:37:26.930Z,14.80
2018-09-14T05:39:55.136Z,14.80
2018-09-14T05:42:23.382Z,14.80
2018-09-14T05:44:51.635Z,14.90
2018-09-14T05:47:19.869Z,14.80
2018-09-14T05:49:48.132Z,14.80
2018-09-14T05:52:16.326Z,14.80
2018-09-14T05:54:44.639Z,14.70
2018-09-14T05:57:12.866Z,14.70
2018-09-14T05:59:41.083Z,14.80
2018-09-14T06:02:09.317Z,14.80
2018-09-14T06:04:37.522Z,14.80
2018-09-14T06:07:05.792Z,14.70
2018-09-14T06:09:33.982Z,14.70
2018-09-14T06:12:02.193Z,14.80
2018-09-14T06:14:30.404Z,14.70
2018-09-14T06:16:58.650Z,14.70
2018-09-14T06:19:26.897Z,14.70
2018-09-14T06:21:55.161Z,14.70
2018-09-14T06:24:23.406Z,14.70
2018-09-14T06:26:51.620Z,14.70
2018-09-14T06:29:19.853Z,14.70
2018-09-14T06:31:48.078Z,14.80
2018-09-14T06:34:16.654Z,14.80
2018-09-14T06:36:44.836Z,14.70
2018-09-14T06:39:13.303Z,14.70
2018-09-14T06:41:48.070Z,14.70
2018-09-14T06:44:16.285Z,14.80
2018-09-14T06:46:44.514Z,14.80
2018-09-14T06:49:12.762Z,14.90
2018-09-14T06:51:40.998Z,14.90
2018-09-14T06:54:09.743Z,14.80
2018-09-14T06:56:37.971Z,14.70
2018-09-14T06:59:06.282Z,14.70
2018-09-14T07:01:34.543Z,14.70
2018-09-14T07:04:02.731Z,14.70
2018-09-14T07:06:30.982Z,14.70
2018-09-14T07:08:59.198Z,14.70
2018-09-14T07:11:27.425Z,14.70
2018-09-14T07:13:55.779Z,14.80
2018-09-14T07:16:24.019Z,14.70
2018-09-14T07:18:52.251Z,14.70
2018-09-14T07:21:20.465Z,14.70
2018-09-14T07:23:48.635Z,14.70
2018-09-14T07:26:16.853Z,14.70
2018-09-14T07:28:45.100Z,14.70
2018-09-14T07:31:13.364Z,14.80
2018-09-14T07:33:41.537Z,14.80
2018-09-14T07:36:09.847Z,14.80
2018-09-14T07:38:38.093Z,14.80
2018-09-14T07:41:06.818Z,14.80
2018-09-14T07:43:35.036Z,14.80
2018-09-14T07:46:03.211Z,14.80
2018-09-14T07:48:32.529Z,14.70
2018-09-14T07:51:00.706Z,14.70
2018-09-14T07:53:28.917Z,14.80
2018-09-14T07:55:57.185Z,14.80
2018-09-14T07:58:25.368Z,14.80
2018-09-14T08:00:53.560Z,14.80
2018-09-14T08:03:21.801Z,14.90
2018-09-14T08:05:50.083Z,15.00
2018-09-14T08:08:18.442Z,15.10
2018-09-14T08:10:46.660Z,15.00
2018-09-14T08:13:14.964Z,15.10
2018-09-14T08:15:43.271Z,15.00
2018-09-14T08:18:11.505Z,14.90
2018-09-14T08:20:40.449Z,15.00
2018-09-14T08:23:08.675Z,15.00
2018-09-14T08:25:36.976Z,15.00
2018-09-14T08:28:05.155Z,15.10
2018-09-14T08:30:33.423Z,15.00
2018-09-14T08:33:01.617Z,15.00
2018-09-14T08:35:30.068Z,14.90
2018-09-14T08:37:58.274Z,14.90
2018-09-14T08:40:26.488Z,14.90
2018-09-14T08:42:54.725Z,15.00
2018-09-14T08:45:23.009Z,15.00
2018-09-14T08:47:51.280Z,15.10
2018-09-14T08:50:19.496Z,15.00
2018-09-14T08:52:47.742Z,14.90
2018-09-14T08:55:16.040Z,14.90
2018-09-14T08:57:44.231Z,15.00
2018-09-14T09:00:12.468Z,15.00
2018-09-14T09:02:40.636Z,15.10
2018-09-14T09:05:08.854Z,15.10
2018-09-14T09:07:37.082Z,15.00
2018-09-14T09:10:05.345Z,15.00
2018-09-14T09:12:33.547Z,15.00
2018-09-14T09:15:01.753Z,15.10
2018-09-14T09:17:30.008Z,15.10
2018-09-14T09:19:58.269Z,15.00
2018-09-14T09:22:26.485Z,15.00
2018-09-14T09:24:54.718Z,15.10
2018-09-14T09:27:22.940Z,15.10
2018-09-14T09:29:51.253Z,15.10
2018-09-14T09:32:19.443Z,15.10
2018-09-14T09:34:47.650Z,15.10
2018-09-14T09:37:15.858Z,15.10
2018-09-14T09:39:44.068Z,15.10
2018-09-14T09:42:12.293Z,15.10
2018-09-14T09:44:40.502Z,15.00
2018-09-14T09:47:08.682Z,15.00
2018-09-14T09:49:36.877Z,15.10
2018-09-14T09:52:05.078Z,15.10
2018-09-14T09:54:33.716Z,15.20
2018-09-14T09:57:02.126Z,15.20
2018-09-14T09:59:30.371Z,15.30
2018-09-14T10:02:03.949Z,15.30
2018-09-14T10:05:36.143Z,15.20
2018-09-14T10:08:04.397Z,15.20
2018-09-14T10:10:32.602Z,15.30
2018-09-14T10:13:00.754Z,15.40
2018-09-14T10:15:28.910Z,15.40
2018-09-14T10:17:57.072Z,15.50
2018-09-14T10:20:25.352Z,15.60
2018-09-14T10:22:53.478Z,15.60
2018-09-14T10:25:21.650Z,15.70
2018-09-14T10:27:49.877Z,15.80
2018-09-14T10:30:17.977Z,15.90
2018-09-14T10:32:46.121Z,16.00
2018-09-14T10:35:14.422Z,16.10
2018-09-14T10:37:42.526Z,16.20
2018-09-14T10:40:10.760Z,16.20
2018-09-14T10:42:38.868Z,16.40
2018-09-14T10:45:07.104Z,16.60
2018-09-14T10:47:35.410Z,16.60
2018-09-14T10:50:03.590Z,16.50
2018-09-14T10:52:31.867Z,16.40
2018-09-14T10:55:00.057Z,16.50
2018-09-14T10:57:28.233Z,16.60
2018-09-14T10:59:56.388Z,16.50
2018-09-14T11:02:24.549Z,16.80
2018-09-14T11:04:52.723Z,16.90
2018-09-14T11:07:21.022Z,17.10
2018-09-14T11:09:49.353Z,17.00
2018-09-14T11:12:17.727Z,17.00
2018-09-14T11:14:45.892Z,17.20
2018-09-14T11:17:14.049Z,17.20
2018-09-14T11:19:42.227Z,17.10
2018-09-14T11:22:10.375Z,17.10
2018-09-14T11:24:38.569Z,17.20
2018-09-14T11:27:06.710Z,17.10
2018-09-14T11:29:34.867Z,17.10
2018-09-14T11:32:03.025Z,17.10
2018-09-14T11:34:31.204Z,17.10
2018-09-14T11:36:59.361Z,17.20
2018-09-14T11:39:27.508Z,17.10
2018-09-14T11:41:55.682Z,17.00
2018-09-14T11:44:23.860Z,17.10
2018-09-14T11:46:52.026Z,17.20
2018-09-14T11:49:20.250Z,17.30
2018-09-14T11:51:48.405Z,17.30
2018-09-14T11:54:16.627Z,17.30
2018-09-14T11:56:44.775Z,17.30
2018-09-14T11:59:12.924Z,17.30
2018-09-14T12:01:41.102Z,17.30
2018-09-14T12:04:09.259Z,17.10
2018-09-14T12:06:37.449Z,17.10
2018-09-14T12:09:07.745Z,17.10
2018-09-14T12:11:35.910Z,17.10
2018-09-14T12:14:04.059Z,17.20
2018-09-14T12:16:32.245Z,17.40
2018-09-14T12:19:00.442Z,17.30
2018-09-14T12:21:28.603Z,17.30
2018-09-14T12:23:56.749Z,17.30
2018-09-14T12:26:25.020Z,17.30
2018-09-14T12:28:53.164Z,17.50
2018-09-14T12:31:21.341Z,17.30
2018-09-14T12:33:49.532Z,17.30
2018-09-14T12:36:17.685Z,17.30
2018-09-14T12:38:45.853Z,17.40
2018-09-14T12:41:14.017Z,17.40
2018-09-14T12:43:42.205Z,17.40
2018-09-14T12:46:10.353Z,17.40
2018-09-14T12:48:38.534Z,17.50
2018-09-14T12:51:06.802Z,17.50
2018-09-14T12:53:34.979Z,17.60
2018-09-14T12:56:03.211Z,17.60
2018-09-14T12:58:31.374Z,17.50
2018-09-14T13:00:59.529Z,17.50
2018-09-14T13:03:27.677Z,17.50
2018-09-14T13:05:55.849Z,17.50
2018-09-14T13:08:24.001Z,17.50
2018-09-14T13:10:52.154Z,17.40
2018-09-14T13:13:20.341Z,17.40
2018-09-14T13:15:48.489Z,17.30
2018-09-14T13:18:16.661Z,17.40
2018-09-14T13:20:44.830Z,17.40
2018-09-14T13:23:12.969Z,17.40
2018-09-14T13:25:41.201Z,17.50
2018-09-14T13:28:09.375Z,17.50
2018-09-14T13:30:37.650Z,17.60
2018-09-14T13:33:05.785Z,17.60
2018-09-14T13:35:33.965Z,17.50
2018-09-14T13:38:02.112Z,17.60
2018-09-14T13:40:30.270Z,17.50
2018-09-14T13:42:58.426Z,17.50
2018-09-14T13:45:26.578Z,17.50
2018-09-14T13:47:54.746Z,17.50
2018-09-14T13:50:22.886Z,17.50
2018-09-14T13:52:51.159Z,17.40
2018-09-14T13:55:19.261Z,17.40
2018-09-14T13:57:47.406Z,17.40
2018-09-14T14:00:15.565Z,17.50
2018-09-14T14:02:43.701Z,17.60
2018-09-14T14:05:11.865Z,17.60
2018-09-14T14:07:40.012Z,17.70
2018-09-14T14:10:08.222Z,17.60
2018-09-14T14:12:36.333Z,17.70
2018-09-14T14:15:04.816Z,17.70
2018-09-14T14:17:33.011Z,17.90
2018-09-14T14:20:01.145Z,17.90
2018-09-14T14:22:29.309Z,17.90
2018-09-14T14:24:57.454Z,17.90
2018-09-14T14:27:25.618Z,18.10
2018-09-14T14:29:53.762Z,18.00
2018-09-14T14:32:21.937Z,18.00
2018-09-14T14:34:50.093Z,18.20
2018-09-14T14:37:18.305Z,18.30
2018-09-14T14:39:46.473Z,18.30
2018-09-14T14:42:14.645Z,18.40
2018-09-14T14:44:42.824Z,18.50
2018-09-14T14:47:11.028Z,18.60
2018-09-14T14:49:39.218Z,18.70
2018-09-14T14:52:07.698Z,18.70
2018-09-14T14:54:35.856Z,18.70
2018-09-14T14:57:04.018Z,18.70
2018-09-14T14:59:32.172Z,18.70
2018-09-14T15:02:00.363Z,18.70
2018-09-14T15:04:29.560Z,18.70
2018-09-14T15:06:57.709Z,18.80
2018-09-14T15:09:25.876Z,18.70
2018-09-14T15:11:54.061Z,18.70
2018-09-14T15:14:22.200Z,18.80
2018-09-14T15:16:50.328Z,18.80
2018-09-14T15:19:18.660Z,18.80
2018-09-14T15:21:46.785Z,18.70
2018-09-14T15:24:15.030Z,18.80
2018-09-14T15:26:43.280Z,18.60
2018-09-14T15:29:11.437Z,18.60
2018-09-14T15:31:39.603Z,18.50
2018-09-14T15:34:07.773Z,18.60
2018-09-14T15:36:35.928Z,18.60
2018-09-14T15:39:07.002Z,18.60
2018-09-14T15:41:35.202Z,18.60
2018-09-14T15:44:03.449Z,18.60
2018-09-14T15:46:31.773Z,18.60
2018-09-14T15:48:59.986Z,18.60
2018-09-14T15:51:28.120Z,18.60
2018-09-14T15:53:56.491Z,18.50
2018-09-14T15:56:24.648Z,18.40
2018-09-14T15:58:52.793Z,18.40
2018-09-14T16:01:20.997Z,18.50
2018-09-14T16:03:49.198Z,18.50
2018-09-14T16:06:18.940Z,18.50
2018-09-14T16:08:47.081Z,18.60
2018-09-14T16:11:15.346Z,18.50
2018-09-14T16:13:43.531Z,18.50
2018-09-14T16:16:11.654Z,18.40
2018-09-14T16:18:39.800Z,18.40
2018-09-14T16:21:07.952Z,18.40
2018-09-14T16:23:36.148Z,18.40
2018-09-14T16:26:04.303Z,18.40
2018-09-14T16:28:32.481Z,18.30
2018-09-14T16:31:00.629Z,18.20
2018-09-14T16:33:29.994Z,18.20
2018-09-14T16:35:58.340Z,18.10
2018-09-14T16:38:26.494Z,18.10
2018-09-14T16:40:54.702Z,18.20
2018-09-14T16:43:22.866Z,18.20
2018-09-14T16:45:51.205Z,18.30
2018-09-14T16:48:19.477Z,18.30
2018-09-14T16:50:47.688Z,18.30
2018-09-14T16:53:15.864Z,18.20
2018-09-14T16:55:44.060Z,18.20
2018-09-14T16:58:12.201Z,18.20
2018-09-14T17:00:40.351Z,18.10
2018-09-14T17:03:09.077Z,18.10
2018-09-14T17:05:37.241Z,18.00
2018-09-14T17:08:05.616Z,17.90
2018-09-14T17:10:33.761Z,17.80
2018-09-14T17:13:01.921Z,17.80
2018-09-14T17:15:30.203Z,17.70
2018-09-14T17:17:58.574Z,17.70
2018-09-14T17:20:26.765Z,17.60
2018-09-14T17:22:54.965Z,17.60
2018-09-14T17:25:23.160Z,17.50
2018-09-14T17:27:51.429Z,17.50
2018-09-14T17:30:19.589Z,17.40
2018-09-14T17:32:47.771Z,17.30
2018-09-14T17:35:15.960Z,17.30
2018-09-14T17:37:44.148Z,17.20
2018-09-14T17:40:12.301Z,17.20
2018-09-14T17:42:40.473Z,17.10
2018-09-14T17:45:08.664Z,17.10
2018-09-14T17:47:37.069Z,17.00
2018-09-14T17:50:06.263Z,16.90
2018-09-14T17:52:34.436Z,16.90
2018-09-14T17:55:02.694Z,16.80
2018-09-14T17:57:30.954Z,16.80
2018-09-14T17:59:59.073Z,16.70
2018-09-14T18:02:27.249Z,16.60
2018-09-14T18:04:55.419Z,16.50
2018-09-14T18:07:23.653Z,16.40
2018-09-14T18:09:51.997Z,16.40
2018-09-14T18:12:20.208Z,16.20
2018-09-14T18:14:48.445Z,16.20
2018-09-14T18:17:16.666Z,16.10
2018-09-14T18:19:44.942Z,16.00
2018-09-14T18:22:13.172Z,15.90
2018-09-14T18:24:41.306Z,15.90
2018-09-14T18:27:09.482Z,15.90
2018-09-14T18:29:37.692Z,15.70
2018-09-14T18:32:05.897Z,15.60
2018-09-14T18:34:34.053Z,15.60
2018-09-14T18:37:02.308Z,15.60
2018-09-14T18:39:30.469Z,15.50
2018-09-14T18:41:58.652Z,15.50
2018-09-14T18:44:27.134Z,15.40
2018-09-14T18:46:55.355Z,15.30
2018-09-14T18:49:23.477Z,15.30
2018-09-14T18:51:51.801Z,15.40
2018-09-14T18:54:20.036Z,15.30
2018-09-14T18:56:48.186Z,15.30
2018-09-14T18:59:16.384Z,15.20
2018-09-14T19:01:44.530Z,15.20
2018-09-14T19:04:12.733Z,15.20
2018-09-14T19:06:40.929Z,15.10
2018-09-14T19:09:10.467Z,15.10
2018-09-14T19:11:38.780Z,15.00
2018-09-14T19:14:07.030Z,15.00
2018-09-14T19:16:35.625Z,15.00
2018-09-14T19:19:03.875Z,15.00
2018-09-14T19:21:32.149Z,14.90
2018-09-14T19:24:00.329Z,14.90
2018-09-14T19:26:28.536Z,14.90
2018-09-14T19:28:56.725Z,15.00
2018-09-14T19:31:24.923Z,15.00
2018-09-14T19:33:53.069Z,15.00
2018-09-14T19:36:21.248Z,15.00
2018-09-14T19:38:49.401Z,15.10
2018-09-14T19:41:17.555Z,15.20
2018-09-14T19:43:45.747Z,15.10
2018-09-14T19:46:13.942Z,15.10
2018-09-14T19:48:42.136Z,15.10
2018-09-14T19:51:10.293Z,15.10
2018-09-14T19:53:38.453Z,15.10
2018-09-14T19:56:06.753Z,15.20
2018-09-14T19:58:34.990Z,15.30
2018-09-14T20:01:03.232Z,15.40
2018-09-14T20:03:31.401Z,15.30
2018-09-14T20:05:59.613Z,15.40
2018-09-14T20:08:27.854Z,15.50
2018-09-14T20:10:56.081Z,15.40
2018-09-14T20:13:24.235Z,15.40
2018-09-14T20:15:52.465Z,15.40
2018-09-14T20:18:20.639Z,15.40
2018-09-14T20:20:48.801Z,15.30
2018-09-14T20:23:17.292Z,15.10
2018-09-14T20:25:45.478Z,15.10
2018-09-14T20:28:13.739Z,15.10
2018-09-14T20:30:41.932Z,15.00
2018-09-14T20:33:10.103Z,15.10
2018-09-14T20:35:38.270Z,15.00
2018-09-14T20:38:06.530Z,14.90
2018-09-14T20:40:34.686Z,14.80
2018-09-14T20:43:02.849Z,14.70
2018-09-14T20:45:31.161Z,14.70
2018-09-14T20:47:59.333Z,14.60
2018-09-14T20:50:27.488Z,14.60
2018-09-14T20:52:55.717Z,14.50
2018-09-14T20:55:23.908Z,14.60
2018-09-14T20:57:52.066Z,14.50
2018-09-14T23:26:28.989Z,14.50
2018-09-14T23:28:57.145Z,14.60
2018-09-14T23:31:25.301Z,14.60
2018-09-14T23:33:53.553Z,14.60
2018-09-14T23:36:21.708Z,14.60
2018-09-14T23:38:49.884Z,14.70
2018-09-14T23:41:18.042Z,14.70
2018-09-14T23:43:46.197Z,14.60
2018-09-14T23:46:14.345Z,14.60
2018-09-14T23:48:42.497Z,14.60
2018-09-14T23:51:10.677Z,14.60
2018-09-14T23:53:38.822Z,14.50
2018-09-14T23:56:07.097Z,14.40
2018-09-14T23:58:35.257Z,14.50
